Arnett, Texas
Current Conditions -  °F | °C
As of 9:55 AM on Sunday 25 Jan 2015 (Local Time) from KGOP Reporting Station
Clear Clear  
Wind Chill: 54°   Ceiling: Unl
Heat Index: 54°   Visibility: 10mi
Dew Point: 37°   Wind: 13mph
Humidity: 54%   Direction: 340°NNW
Pressure: 30.11"   Gusts: 17mph
Location:  31.392°N, 97.7452°W
Report Text: KGOP 251555Z AUTO 34011G15KT 10SM CLR 12/03 A3011 RMK AO2
Loading
Personal Weather Stations






























Interactive Weather Map New forecast layout! Learn more

10-Day Weather Forecast

Advertisements
Track Severe Weather on mobile